Lobo

Go HERE for most recent data if this page is not up to date.

Jump to table bottom
Date/Time Temp deg F RH % 24 Hr Snow (in) Snow Depth (in) H2O (in)
04/22 10:00 24.8 29 -0.0 38.9 0.00
04/22 09:00 21.2 53 0.0 39.0 0.00
04/22 08:00 19.3 52 0.0 39.1 0.00
04/22 07:00 18.7 57 0.0 39.1 0.00
04/22 06:00 20.4 53 0.0 39.2 0.00
04/22 05:00 22.0 39 0.0 39.2 0.00
04/22 04:00 22.9 44 0.0 39.1 0.00
04/22 03:00 24.3 47 0.0 39.1 0.00
04/22 02:00 25.9 49 0.0 39.2 0.00
04/22 01:00 27.2 46 0.0 39.2 0.00
04/22 00:00 29.2 58 0.1 39.3 0.00
04/21 23:00 31.7 63 0.0 39.2 0.00
04/21 22:00 33.8 60 0.0 39.2 0.00
04/21 21:00 36.3 58 0.0 39.2 0.00
04/21 20:00 39.2 49 0.0 39.2 0.00
04/21 19:00 40.8 38 0.0 39.3 0.00
04/21 18:00 39.9 48 0.0 39.4 0.00
04/21 17:00 35.5 73 0.0 39.5 0.00
04/21 16:00 41.3 69 0.0 39.4 0.00
04/21 15:00 43.9 36 -0.0 39.7 0.00
04/21 14:00 44.5 40 0.0 40.3 0.00
04/21 13:00 43.9 37 0.0 40.6 0.00
04/21 12:00 44.5 37 0.0 40.9 0.00
04/21 11:00 40.3 38 0.0 40.9 0.00
04/21 10:00 37.2 42 0.0 40.9 0.00
04/21 09:00 34.7 44 -0.0 41.0 0.00
04/21 08:00 32.7 45 0.0 41.0 0.00
04/21 07:00 32.5 40 -0.0 41.0 0.00
04/21 06:00 32.0 39 0.0 41.0 0.00
04/21 05:00 30.7 40 0.0 41.0 0.00
04/21 04:00 30.7 37 0.0 41.1 0.00
04/21 03:00 30.6 38 0.0 41.0 0.00
04/21 02:00 30.1 39 0.0 41.1 0.00
04/21 01:00 30.0 40 0.0 41.1 0.00
04/21 00:00 30.2 33 0.0 41.0 0.00
.